Time;durP1;ratioP1;P1;durP2;ratioP2;P2;SDS_P1;SDS_P2;PMS_P1;PMS_P2;Temp;Humidity;BMP_temperature;BMP_pressure;BME280_temperature;BME280_humidity;BME280_pressure;Samples;Min_cycle;Max_cycle;Signal;HPM_P1;HPM_P2
2021/03/01 00:00:35;;;;;;;16.43;11.90;;;6.30;99.90;;;;;;4974733;28;20186;-77
2021/03/01 00:03:01;;;;;;;17.77;11.23;;;6.30;99.90;;;;;;4975348;28;20275;-78
2021/03/01 00:05:26;;;;;;;16.47;11.40;;;6.20;99.90;;;;;;4976610;28;20205;-79
2021/03/01 00:07:52;;;;;;;17.93;12.27;;;6.10;99.90;;;;;;4977128;28;20245;-80
2021/03/01 00:10:18;;;;;;;16.53;11.57;;;6.10;99.90;;;;;;4973190;28;20182;-78
2021/03/01 00:12:44;;;;;;;17.10;11.80;;;5.90;99.90;;;;;;4956078;28;20233;-80
2021/03/01 00:15:12;;;;;;;15.13;11.87;;;5.90;99.90;;;;;;4976817;28;20448;-79
2021/03/01 00:17:39;;;;;;;18.70;11.80;;;6.00;99.90;;;;;;4977882;28;20409;-79
2021/03/01 00:20:08;;;;;;;17.63;12.50;;;5.90;99.90;;;;;;4975166;28;20442;-79
2021/03/01 00:22:34;;;;;;;20.60;13.37;;;5.90;99.90;;;;;;4975063;28;20472;-80
2021/03/01 00:24:59;;;;;;;16.70;11.73;;;5.90;99.90;;;;;;4971504;28;20437;-80
2021/03/01 00:27:25;;;;;;;17.70;12.93;;;5.90;99.90;;;;;;4976628;28;20203;-79
2021/03/01 00:29:50;;;;;;;23.13;12.50;;;5.90;99.90;;;;;;4972677;28;20178;-79
2021/03/01 00:32:16;;;;;;;20.43;13.67;;;5.90;99.90;;;;;;4976197;28;20189;-79
2021/03/01 00:34:41;;;;;;;17.13;12.10;;;5.90;99.90;;;;;;4977407;28;20212;-78
2021/03/01 00:37:07;;;;;;;16.93;11.60;;;5.90;99.90;;;;;;4978030;28;20172;-78
2021/03/01 00:39:33;;;;;;;22.60;11.90;;;5.90;99.90;;;;;;4971357;28;20201;-79
2021/03/01 00:41:58;;;;;;;17.17;12.03;;;5.90;99.90;;;;;;4961226;28;20206;-80
2021/03/01 00:44:24;;;;;;;17.60;12.23;;;5.90;99.90;;;;;;4977445;28;20308;-78
2021/03/01 00:46:49;;;;;;;19.90;11.80;;;5.80;99.90;;;;;;4959597;28;20228;-78
2021/03/01 00:49:15;;;;;;;17.10;11.87;;;5.80;99.90;;;;;;4958277;28;20273;-78
2021/03/01 00:51:40;;;;;;;19.10;11.73;;;5.70;99.90;;;;;;4972380;28;20191;-79
2021/03/01 00:54:06;;;;;;;18.57;12.17;;;5.70;99.90;;;;;;4960222;28;20186;-79
2021/03/01 00:56:32;;;;;;;19.80;12.07;;;5.70;99.90;;;;;;4962607;28;20209;-79
2021/03/01 00:58:57;;;;;;;17.47;11.50;;;5.70;99.90;;;;;;4946985;28;20670;-79
2021/03/01 01:01:23;;;;;;;15.37;10.30;;;5.60;99.90;;;;;;4974663;28;20432;-79
2021/03/01 01:03:48;;;;;;;19.37;12.90;;;5.60;99.90;;;;;;4975466;28;20182;-79
2021/03/01 01:06:14;;;;;;;19.47;11.37;;;5.60;99.90;;;;;;4975198;28;20205;-79
2021/03/01 01:08:40;;;;;;;18.57;11.63;;;5.40;99.90;;;;;;4958547;28;20176;-79
2021/03/01 01:11:06;;;;;;;23.37;11.60;;;5.40;99.90;;;;;;4956592;28;20635;-79
2021/03/01 01:13:31;;;;;;;19.53;12.50;;;5.40;99.90;;;;;;4974079;28;20194;-79
2021/03/01 01:15:58;;;;;;;16.80;11.30;;;5.30;99.90;;;;;;4971644;28;20197;-78
2021/03/01 01:18:25;;;;;;;17.20;11.40;;;5.30;99.90;;;;;;4975876;28;20181;-79
2021/03/01 01:20:51;;;;;;;17.80;12.40;;;5.30;99.90;;;;;;4973193;28;20440;-79
2021/03/01 01:23:17;;;;;;;16.33;11.97;;;5.30;99.90;;;;;;4957270;28;20566;-78
2021/03/01 01:25:43;;;;;;;16.43;11.73;;;5.30;99.90;;;;;;4957493;28;20511;-78
2021/03/01 01:28:08;;;;;;;21.47;13.43;;;5.30;99.90;;;;;;4966338;28;20197;-79
2021/03/01 01:30:34;;;;;;;17.23;12.60;;;5.30;99.90;;;;;;4975226;28;20176;-79
2021/03/01 01:32:59;;;;;;;16.40;10.77;;;5.30;99.90;;;;;;4974099;28;20193;-79
2021/03/01 01:35:25;;;;;;;18.13;11.60;;;5.30;99.90;;;;;;4964990;28;20205;-78
2021/03/01 01:37:51;;;;;;;20.40;12.70;;;5.30;99.90;;;;;;4960159;28;20205;-78
2021/03/01 01:40:18;;;;;;;18.97;11.50;;;5.20;99.90;;;;;;4964867;28;20213;-78
2021/03/01 01:42:45;;;;;;;17.60;10.90;;;5.20;99.90;;;;;;4965050;28;20666;-78
2021/03/01 01:45:14;;;;;;;17.40;10.57;;;5.20;99.90;;;;;;4973383;28;20453;-78
2021/03/01 01:47:40;;;;;;;14.10;10.60;;;5.20;99.90;;;;;;4975207;28;20503;-78
2021/03/01 01:50:07;;;;;;;17.37;12.90;;;5.20;99.90;;;;;;4971931;28;20467;-79
2021/03/01 01:52:33;;;;;;;17.90;11.63;;;5.20;99.90;;;;;;4970786;28;20432;-78
2021/03/01 01:54:59;;;;;;;14.03;10.30;;;5.20;99.90;;;;;;4957943;28;20458;-79
2021/03/01 01:57:25;;;;;;;12.30;10.40;;;5.20;99.90;;;;;;4975219;28;20184;-78
2021/03/01 01:59:50;;;;;;;16.70;11.33;;;5.10;99.90;;;;;;4975528;28;20478;-78
2021/03/01 02:02:17;;;;;;;23.00;12.30;;;5.10;99.90;;;;;;4973784;28;20325;-79
2021/03/01 02:04:47;;;;;;;19.73;12.80;;;5.00;99.90;;;;;;4975005;28;20442;-78
2021/03/01 02:07:27;;;;;;;15.67;10.10;;;5.00;99.90;;;;;;4969877;28;20953;-79
2021/03/01 02:10:27;;;;;;;21.20;13.07;;;5.00;99.90;;;;;;4971291;28;20464;-79
2021/03/01 02:13:01;;;;;;;20.17;10.97;;;4.90;99.90;;;;;;4973498;28;20445;-79
2021/03/01 02:15:39;;;;;;;21.23;12.93;;;5.00;99.90;;;;;;4973894;28;20865;-78
2021/03/01 02:18:05;;;;;;;15.90;10.77;;;5.00;99.90;;;;;;4974430;28;20567;-79
2021/03/01 02:20:30;;;;;;;20.10;11.97;;;4.90;99.90;;;;;;4956509;28;20519;-78
2021/03/01 02:22:56;;;;;;;16.47;11.60;;;4.90;99.90;;;;;;4957449;28;20209;-79
2021/03/01 02:25:24;;;;;;;16.73;11.27;;;5.00;99.90;;;;;;4968939;28;20266;-79
2021/03/01 02:27:54;;;;;;;14.07;10.77;;;4.90;99.90;;;;;;4958106;28;20173;-79
2021/03/01 02:30:33;;;;;;;21.03;11.37;;;4.90;99.90;;;;;;4953106;28;21214;-79
2021/03/01 02:33:22;;;;;;;17.63;11.17;;;4.90;99.90;;;;;;4951898;28;21798;-79
2021/03/01 02:35:53;;;;;;;15.87;11.10;;;4.60;99.90;;;;;;4952576;28;20966;-79
2021/03/01 02:38:23;;;;;;;16.40;10.70;;;4.70;99.90;;;;;;4953501;28;20520;-78
2021/03/01 02:40:50;;;;;;;20.83;12.20;;;4.50;99.90;;;;;;4967908;28;20470;-79
2021/03/01 02:43:17;;;;;;;19.77;11.07;;;4.50;99.90;;;;;;4974398;28;20463;-79
2021/03/01 02:45:45;;;;;;;14.27;10.30;;;4.50;99.90;;;;;;4965048;28;20457;-80
2021/03/01 02:48:12;;;;;;;17.57;11.10;;;4.40;99.90;;;;;;4945096;28;20442;-79
2021/03/01 02:50:39;;;;;;;19.07;11.00;;;4.50;99.90;;;;;;4961092;28;20418;-79
2021/03/01 02:53:05;;;;;;;17.20;11.63;;;4.50;99.90;;;;;;4955691;28;20436;-79
2021/03/01 02:55:31;;;;;;;14.10;10.20;;;4.50;99.90;;;;;;4959407;28;20459;-78
2021/03/01 02:57:58;;;;;;;20.13;11.20;;;4.60;99.90;;;;;;4973341;28;20197;-79
2021/03/01 03:00:24;;;;;;;14.50;9.40;;;4.60;99.90;;;;;;4972351;28;20441;-79
2021/03/01 03:02:51;;;;;;;17.60;9.37;;;4.50;99.90;;;;;;4960729;28;20798;-79
2021/03/01 03:05:18;;;;;;;15.60;9.43;;;4.60;99.90;;;;;;4976836;28;20450;-79
2021/03/01 03:07:47;;;;;;;15.87;10.20;;;4.50;99.90;;;;;;4959649;28;20447;-79
2021/03/01 03:10:15;;;;;;;13.60;9.53;;;4.60;99.90;;;;;;4968168;28;20435;-80
2021/03/01 03:12:43;;;;;;;27.13;10.13;;;4.60;99.90;;;;;;4958270;28;20444;-80
2021/03/01 03:15:14;;;;;;;16.63;9.30;;;4.50;99.90;;;;;;4973439;28;20531;-79
2021/03/01 03:17:39;;;;;;;17.17;8.97;;;4.50;99.90;;;;;;4978295;28;20405;-79
2021/03/01 03:20:07;;;;;;;11.80;8.90;;;4.50;99.90;;;;;;4976572;28;20424;-79
2021/03/01 03:22:33;;;;;;;15.73;10.37;;;4.50;99.90;;;;;;4959654;28;20204;-79
2021/03/01 03:24:59;;;;;;;12.70;9.77;;;4.50;99.90;;;;;;4972353;28;20490;-79
2021/03/01 03:27:24;;;;;;;13.10;9.97;;;4.50;99.90;;;;;;4973729;28;20439;-79
2021/03/01 03:29:50;;;;;;;15.10;10.80;;;4.50;99.90;;;;;;4977347;28;20223;-79
2021/03/01 03:32:16;;;;;;;19.27;10.57;;;4.50;99.90;;;;;;4960853;28;20188;-79
2021/03/01 03:34:42;;;;;;;16.60;10.23;;;4.40;99.90;;;;;;4975258;28;20462;-79
2021/03/01 03:37:13;;;;;;;17.07;10.43;;;4.40;99.90;;;;;;4974960;28;20174;-79
2021/03/01 03:39:44;;;;;;;21.03;11.67;;;4.40;99.90;;;;;;4950747;28;20450;-79
2021/03/01 03:42:13;;;;;;;19.20;12.67;;;4.30;99.90;;;;;;4960046;28;20494;-80
2021/03/01 03:44:41;;;;;;;17.40;12.27;;;4.30;99.90;;;;;;4976370;28;20829;-79
2021/03/01 03:47:07;;;;;;;17.70;12.07;;;4.30;99.90;;;;;;4976757;28;20446;-78
2021/03/01 03:49:36;;;;;;;18.13;12.13;;;4.30;99.90;;;;;;4971435;28;20423;-79
2021/03/01 03:52:04;;;;;;;19.63;12.40;;;4.30;99.90;;;;;;4973135;28;20439;-79
2021/03/01 03:54:32;;;;;;;19.07;12.50;;;4.30;99.90;;;;;;4975400;28;20437;-79
2021/03/01 03:57:00;;;;;;;21.77;14.80;;;4.20;99.90;;;;;;4975687;28;20480;-80
2021/03/01 03:59:32;;;;;;;25.33;12.90;;;4.30;99.90;;;;;;4971059;28;20814;-79
2021/03/01 04:01:58;;;;;;;21.40;12.20;;;4.30;99.90;;;;;;4972674;28;20467;-79
2021/03/01 04:04:26;;;;;;;25.53;15.10;;;4.20;99.90;;;;;;4975029;28;20432;-78
2021/03/01 04:06:52;;;;;;;22.17;14.60;;;4.20;99.90;;;;;;4976660;28;20188;-78
2021/03/01 04:09:21;;;;;;;25.37;15.90;;;4.20;99.90;;;;;;4977021;28;20511;-78
2021/03/01 04:11:48;;;;;;;25.30;16.47;;;4.20;99.90;;;;;;4974711;28;20464;-79
2021/03/01 04:14:25;;;;;;;23.40;15.43;;;4.20;99.90;;;;;;4977309;28;20408;-79
2021/03/01 04:16:56;;;;;;;25.23;16.47;;;4.10;99.90;;;;;;4960466;28;20531;-79
2021/03/01 04:19:25;;;;;;;24.40;15.67;;;4.10;99.90;;;;;;4960331;28;20534;-80
2021/03/01 04:21:53;;;;;;;24.27;15.67;;;4.10;99.90;;;;;;4960708;28;20454;-79
2021/03/01 04:24:22;;;;;;;30.37;17.23;;;4.10;99.90;;;;;;4977542;28;20434;-80
2021/03/01 04:26:49;;;;;;;30.17;17.63;;;4.00;99.90;;;;;;4977116;28;20486;-79
2021/03/01 04:29:15;;;;;;;26.03;16.13;;;4.00;99.90;;;;;;4976607;28;20984;-79
2021/03/01 04:31:43;;;;;;;28.27;17.40;;;4.00;99.90;;;;;;4977073;28;20877;-79
2021/03/01 04:34:09;;;;;;;30.27;17.67;;;4.00;99.90;;;;;;4977372;28;20779;-79
2021/03/01 04:36:36;;;;;;;25.17;15.13;;;4.00;99.90;;;;;;4959664;28;20482;-79
2021/03/01 04:39:04;;;;;;;27.13;15.30;;;4.00;99.90;;;;;;4977201;28;20502;-80
2021/03/01 04:41:31;;;;;;;27.03;16.87;;;4.00;99.90;;;;;;4957806;29;20416;-79
2021/03/01 04:43:58;;;;;;;29.00;17.67;;;3.90;99.90;;;;;;4976125;28;20429;-80
2021/03/01 04:46:24;;;;;;;29.20;17.53;;;3.90;99.90;;;;;;4975784;28;20450;-79
2021/03/01 04:48:51;;;;;;;30.70;17.37;;;3.90;99.90;;;;;;4976363;28;20419;-79
2021/03/01 04:51:17;;;;;;;25.77;16.57;;;3.90;99.90;;;;;;4959628;28;20991;-80
2021/03/01 04:53:43;;;;;;;25.40;16.67;;;3.90;99.90;;;;;;4959779;28;20420;-80
2021/03/01 04:56:10;;;;;;;28.83;18.73;;;3.80;99.90;;;;;;4976954;28;20451;-79
2021/03/01 04:58:37;;;;;;;27.67;17.47;;;3.80;99.90;;;;;;4977000;28;20782;-80
2021/03/01 05:01:05;;;;;;;29.03;18.47;;;3.80;99.90;;;;;;4975283;28;20459;-80
2021/03/01 05:03:32;;;;;;;28.47;18.37;;;3.80;99.90;;;;;;4976944;28;20462;-80
2021/03/01 05:06:02;;;;;;;29.37;17.50;;;3.80;99.90;;;;;;4960068;28;20861;-79
2021/03/01 05:08:28;;;;;;;35.57;19.10;;;3.80;99.90;;;;;;4976124;28;20424;-80
2021/03/01 05:10:55;;;;;;;32.00;19.60;;;3.80;99.90;;;;;;4975631;28;20431;-81
2021/03/01 05:13:21;;;;;;;27.53;18.13;;;3.70;99.90;;;;;;4976113;28;20881;-79
2021/03/01 05:15:47;;;;;;;27.00;18.13;;;3.70;99.90;;;;;;4975418;28;20447;-80
2021/03/01 05:18:12;;;;;;;34.30;19.70;;;3.60;99.90;;;;;;4976903;28;20176;-80
2021/03/01 05:20:38;;;;;;;27.27;19.67;;;3.60;99.90;;;;;;4958954;28;20879;-79
2021/03/01 05:23:04;;;;;;;29.77;19.67;;;3.60;99.90;;;;;;4970816;28;20203;-80
2021/03/01 05:25:30;;;;;;;29.07;19.07;;;3.60;99.90;;;;;;4951773;28;20269;-80
2021/03/01 05:27:55;;;;;;;34.67;19.57;;;3.60;99.90;;;;;;4970222;28;20434;-80
2021/03/01 05:30:21;;;;;;;28.87;18.57;;;3.60;99.90;;;;;;4975668;28;20176;-80
2021/03/01 05:32:47;;;;;;;33.03;20.97;;;3.60;99.90;;;;;;4974019;28;20267;-80
2021/03/01 05:35:13;;;;;;;32.30;20.63;;;3.40;99.90;;;;;;4973298;28;20928;-80
2021/03/01 05:37:38;;;;;;;32.93;19.17;;;3.50;99.90;;;;;;4973685;28;20190;-79
2021/03/01 05:40:05;;;;;;;33.00;19.07;;;3.50;99.90;;;;;;4966965;28;20180;-80
2021/03/01 05:42:33;;;;;;;31.43;20.47;;;3.50;99.90;;;;;;4967603;28;20204;-80
2021/03/01 05:44:59;;;;;;;29.10;17.97;;;3.50;99.90;;;;;;4974972;28;20438;-79
2021/03/01 05:47:26;;;;;;;33.63;18.67;;;3.60;99.90;;;;;;4958940;28;20459;-79
2021/03/01 05:49:54;;;;;;;28.87;18.10;;;3.60;99.90;;;;;;4974227;28;20832;-80
2021/03/01 05:52:20;;;;;;;24.87;17.13;;;3.60;99.90;;;;;;4975154;28;20440;-80
2021/03/01 05:54:46;;;;;;;31.63;18.70;;;3.60;99.90;;;;;;4974512;28;20432;-80
2021/03/01 05:57:13;;;;;;;28.17;17.80;;;3.60;99.90;;;;;;4976083;28;20430;-80
2021/03/01 05:59:40;;;;;;;27.13;17.50;;;3.60;99.90;;;;;;4975560;28;20866;-80
2021/03/01 06:02:07;;;;;;;31.53;17.83;;;3.60;99.90;;;;;;4958289;28;20555;-80
2021/03/01 06:04:33;;;;;;;29.30;19.20;;;3.50;99.90;;;;;;4973467;28;20431;-80
2021/03/01 06:06:58;;;;;;;32.37;18.37;;;3.50;99.90;;;;;;4957940;28;20851;-80
2021/03/01 06:09:24;;;;;;;30.63;17.67;;;3.40;99.90;;;;;;4959498;28;20434;-80
2021/03/01 06:11:54;;;;;;;28.17;19.30;;;3.40;99.90;;;;;;4973712;28;20179;-80
2021/03/01 06:14:20;;;;;;;26.67;17.60;;;3.40;99.90;;;;;;4957171;28;20196;-80
2021/03/01 06:17:10;;;;;;;29.77;18.60;;;3.50;99.90;;;;;;4975134;28;20470;-80
2021/03/01 06:19:53;;;;;;;26.30;17.90;;;3.50;99.90;;;;;;4974510;28;20657;-80
2021/03/01 06:22:21;;;;;;;31.83;17.63;;;3.50;99.90;;;;;;4958593;28;20455;-80
2021/03/01 06:25:07;;;;;;;29.70;18.30;;;3.40;99.90;;;;;;4955363;28;20480;-80
2021/03/01 06:28:08;;;;;;;29.07;18.40;;;3.40;99.90;;;;;;4956590;29;20495;-80
2021/03/01 06:30:36;;;;;;;29.10;17.63;;;3.30;99.90;;;;;;4914411;29;20811;-79
2021/03/01 06:33:14;;;;;;;27.10;18.30;;;3.30;99.90;;;;;;4946964;28;20601;-80
2021/03/01 06:35:48;;;;;;;29.93;18.90;;;3.30;99.90;;;;;;4968626;28;20531;-79
2021/03/01 06:38:27;;;;;;;29.77;18.37;;;3.30;99.90;;;;;;4955108;29;20417;-79
2021/03/01 06:41:11;;;;;;;29.00;17.37;;;3.30;99.90;;;;;;4965079;28;20435;-81
2021/03/01 06:43:39;;;;;;;31.23;18.70;;;3.30;99.90;;;;;;4973822;28;20781;-80
2021/03/01 06:46:14;;;;;;;30.00;19.17;;;3.40;99.90;;;;;;4965754;28;20451;-80
2021/03/01 06:48:41;;;;;;;27.43;17.50;;;3.50;99.90;;;;;;4967755;28;20597;-79
2021/03/01 06:51:08;;;;;;;31.83;17.77;;;3.50;99.90;;;;;;4954906;28;20457;-80
2021/03/01 06:53:35;;;;;;;31.50;18.10;;;3.50;99.90;;;;;;4965661;28;20435;-80
2021/03/01 06:56:08;;;;;;;28.77;17.20;;;3.60;99.90;;;;;;4964804;28;20539;-80
2021/03/01 06:58:38;;;;;;;28.10;18.50;;;3.60;99.90;;;;;;4970796;28;20435;-81
2021/03/01 07:01:13;;;;;;;27.33;17.90;;;3.70;99.90;;;;;;4973897;28;20498;-79
2021/03/01 07:03:40;;;;;;;29.13;18.10;;;3.70;99.90;;;;;;4972805;28;20463;-80
2021/03/01 07:06:07;;;;;;;30.90;19.70;;;3.70;99.90;;;;;;4974569;28;20451;-80
2021/03/01 07:08:49;;;;;;;26.80;17.43;;;3.80;99.90;;;;;;4975564;28;20812;-80
2021/03/01 07:11:35;;;;;;;24.83;16.80;;;3.90;99.90;;;;;;4969581;28;20427;-80
2021/03/01 07:14:03;;;;;;;27.00;17.30;;;3.90;99.90;;;;;;4975652;28;20475;-80
2021/03/01 07:16:41;;;;;;;30.17;18.47;;;4.00;99.90;;;;;;4974499;28;20527;-80
2021/03/01 07:19:19;;;;;;;27.33;17.20;;;4.00;99.90;;;;;;4959103;28;20427;-80
2021/03/01 07:21:52;;;;;;;29.27;18.07;;;4.10;99.90;;;;;;4975846;28;20432;-80
2021/03/01 07:24:23;;;;;;;31.63;18.87;;;4.20;99.90;;;;;;4974508;28;20773;-80
2021/03/01 07:26:50;;;;;;;29.90;18.27;;;4.30;99.90;;;;;;4973467;28;20906;-80
2021/03/01 07:29:17;;;;;;;27.40;17.83;;;4.40;99.90;;;;;;4973329;28;20408;-80
2021/03/01 07:32:02;;;;;;;27.20;17.37;;;4.50;99.90;;;;;;4964283;28;20443;-80
2021/03/01 07:34:29;;;;;;;29.53;19.57;;;4.50;99.90;;;;;;4958726;28;20441;-78
2021/03/01 07:36:56;;;;;;;25.37;17.57;;;4.60;99.90;;;;;;4966373;28;20457;-80
2021/03/01 07:39:23;;;;;;;26.73;18.10;;;4.60;99.90;;;;;;4960959;28;20433;-80
2021/03/01 07:41:50;;;;;;;27.90;19.80;;;4.80;99.90;;;;;;4955671;28;20468;-80
2021/03/01 07:44:21;;;;;;;31.30;18.40;;;4.80;99.90;;;;;;4975096;28;20475;-80
2021/03/01 07:46:48;;;;;;;25.83;17.77;;;4.90;99.90;;;;;;4969204;28;20458;-80
2021/03/01 07:49:32;;;;;;;26.93;17.30;;;4.90;99.90;;;;;;4958368;28;20424;-78
2021/03/01 07:51:58;;;;;;;33.37;18.30;;;5.00;99.90;;;;;;4976285;28;20425;-80
2021/03/01 07:54:53;;;;;;;27.77;18.53;;;5.20;99.90;;;;;;4978246;28;20787;-80
2021/03/01 07:57:21;;;;;;;26.50;16.90;;;5.30;99.90;;;;;;4978814;28;20211;-80
2021/03/01 07:59:47;;;;;;;25.83;17.90;;;5.40;99.90;;;;;;4972422;28;20491;-80
2021/03/01 08:02:24;;;;;;;25.73;16.37;;;5.30;99.90;;;;;;4960939;28;20465;-80
2021/03/01 08:04:51;;;;;;;25.77;18.10;;;5.50;99.90;;;;;;4978318;28;20432;-79
2021/03/01 08:07:17;;;;;;;25.57;16.40;;;6.00;99.90;;;;;;4979053;28;20452;-79
2021/03/01 08:09:53;;;;;;;19.93;14.03;;;6.90;99.90;;;;;;4978183;28;20483;-79
2021/03/01 08:12:34;;;;;;;17.13;12.87;;;8.20;99.90;;;;;;4977521;28;20483;-80
2021/03/01 08:15:04;;;;;;;18.93;14.20;;;9.80;99.90;;;;;;4969244;28;20432;-79
2021/03/01 08:17:35;;;;;;;17.60;13.77;;;11.10;99.90;;;;;;4978525;28;20458;-80
2021/03/01 08:20:13;;;;;;;16.40;12.77;;;12.30;99.90;;;;;;4964886;28;20431;-79
2021/03/01 08:23:07;;;;;;;19.17;13.00;;;13.20;99.90;;;;;;4980246;28;20440;-80
2021/03/01 08:25:45;;;;;;;18.43;12.20;;;13.90;99.90;;;;;;4964934;28;20448;-80
2021/03/01 08:28:17;;;;;;;17.83;13.73;;;14.90;99.90;;;;;;4959760;28;20428;-77
2021/03/01 08:30:49;;;;;;;14.90;12.97;;;15.30;99.90;;;;;;4977722;28;20429;-79
2021/03/01 08:33:15;;;;;;;15.63;13.60;;;15.70;99.90;;;;;;4968032;28;21127;-80
2021/03/01 08:35:48;;;;;;;16.23;12.47;;;15.90;99.90;;;;;;4983895;28;20448;-78
2021/03/01 08:38:16;;;;;;;18.23;13.57;;;16.40;99.90;;;;;;4980864;28;20181;-77
2021/03/01 08:41:00;;;;;;;14.43;12.13;;;16.80;99.90;;;;;;4978840;28;20521;-77
2021/03/01 08:43:32;;;;;;;15.87;13.27;;;17.40;99.90;;;;;;4980202;28;20471;-77
2021/03/01 08:45:58;;;;;;;16.50;13.87;;;17.80;97.50;;;;;;4962668;28;20463;-77
2021/03/01 08:48:24;;;;;;;15.20;13.10;;;18.10;96.80;;;;;;4963086;28;20460;-77
2021/03/01 08:50:51;;;;;;;15.40;12.90;;;18.30;93.40;;;;;;4978236;28;20437;-77
2021/03/01 08:53:22;;;;;;;15.53;13.90;;;18.50;92.00;;;;;;4978291;28;20182;-77
2021/03/01 08:55:49;;;;;;;21.50;14.20;;;18.60;90.20;;;;;;4979466;28;20507;-78
2021/03/01 08:58:15;;;;;;;15.70;12.90;;;18.70;90.20;;;;;;4979969;28;20425;-77
2021/03/01 09:00:55;;;;;;;13.70;12.23;;;18.70;88.70;;;;;;4975558;28;20942;-78
2021/03/01 09:03:32;;;;;;;14.70;12.70;;;18.90;87.70;;;;;;4980869;28;20453;-78
2021/03/01 09:06:12;;;;;;;15.90;12.80;;;19.10;86.90;;;;;;4965933;28;20437;-77
2021/03/01 09:08:43;;;;;;;13.83;11.17;;;19.20;82.60;;;;;;4961598;28;20421;-78
2021/03/01 09:11:14;;;;;;;13.60;12.20;;;19.30;81.30;;;;;;4970082;28;20518;-77
2021/03/01 09:13:41;;;;;;;14.57;13.00;;;19.30;79.90;;;;;;4971352;28;20428;-77
2021/03/01 09:16:16;;;;;;;16.50;12.97;;;19.40;80.40;;;;;;4978365;28;20449;-77
2021/03/01 09:18:46;;;;;;;20.00;13.43;;;19.70;81.30;;;;;;4962099;28;20463;-79
2021/03/01 09:21:16;;;;;;;13.37;12.00;;;19.90;79.00;;;;;;4972777;28;20436;-77
2021/03/01 09:23:49;;;;;;;13.13;11.73;;;20.00;76.60;;;;;;4974574;28;20464;-78
2021/03/01 09:26:28;;;;;;;14.43;12.37;;;20.20;75.00;;;;;;4974268;28;20448;-77
2021/03/01 09:28:55;;;;;;;14.67;11.60;;;20.50;70.20;;;;;;4958389;28;20918;-77
2021/03/01 09:31:22;;;;;;;14.30;11.93;;;20.40;70.60;;;;;;4974395;28;20420;-77
2021/03/01 09:33:49;;;;;;;15.83;11.47;;;20.00;68.30;;;;;;4954491;28;20433;-77
2021/03/01 09:36:15;;;;;;;14.73;12.20;;;20.10;69.00;;;;;;4968886;28;20453;-77
2021/03/01 09:38:41;;;;;;;15.70;11.80;;;20.30;69.80;;;;;;4968847;28;20432;-77
2021/03/01 09:41:11;;;;;;;15.50;11.80;;;20.30;67.00;;;;;;4970697;28;20229;-77
2021/03/01 09:43:47;;;;;;;12.93;11.13;;;20.40;67.90;;;;;;4954187;28;20547;-77
2021/03/01 09:46:12;;;;;;;12.67;11.37;;;20.50;66.00;;;;;;4965346;28;20452;-78
2021/03/01 09:48:43;;;;;;;16.60;11.70;;;20.50;66.40;;;;;;4972520;28;20447;-77
2021/03/01 09:51:11;;;;;;;13.77;12.30;;;20.70;66.60;;;;;;4964814;28;20279;-77
2021/03/01 09:53:37;;;;;;;15.60;11.33;;;20.60;63.70;;;;;;4972549;28;20888;-78
2021/03/01 09:56:04;;;;;;;20.70;11.67;;;20.70;65.20;;;;;;4973396;28;20921;-76
2021/03/01 09:58:31;;;;;;;13.07;11.20;;;20.30;64.30;;;;;;4973756;28;20455;-75
2021/03/01 10:01:17;;;;;;;16.07;12.40;;;20.30;65.00;;;;;;4958674;28;20433;-76
2021/03/01 10:03:49;;;;;;;13.30;11.87;;;20.30;65.10;;;;;;4972057;28;20464;-76
2021/03/01 10:06:28;;;;;;;13.57;11.77;;;20.30;65.00;;;;;;4958664;28;20457;-76
2021/03/01 10:09:05;;;;;;;21.10;12.53;;;20.50;64.40;;;;;;4954403;29;20410;-75
2021/03/01 10:11:31;;;;;;;13.10;11.60;;;20.60;64.20;;;;;;4970045;28;20429;-76
2021/03/01 10:14:04;;;;;;;15.47;11.50;;;20.80;63.70;;;;;;4971130;28;20520;-76
2021/03/01 10:16:32;;;;;;;15.70;11.87;;;21.20;63.60;;;;;;4969982;28;20463;-76
2021/03/01 10:19:11;;;;;;;15.80;12.40;;;21.40;62.90;;;;;;4974079;28;20420;-75
2021/03/01 10:21:36;;;;;;;13.10;10.90;;;20.20;59.60;;;;;;4972388;28;20440;-76
2021/03/01 10:24:06;;;;;;;16.13;11.37;;;20.20;62.60;;;;;;4970154;28;20429;-75
2021/03/01 10:26:31;;;;;;;14.43;11.27;;;21.10;63.30;;;;;;4954990;28;20201;-76
2021/03/01 10:29:00;;;;;;;15.07;10.97;;;21.50;60.00;;;;;;4973300;28;20401;-75
2021/03/01 10:31:27;;;;;;;14.17;10.23;;;21.40;60.00;;;;;;4972680;28;20170;-77
2021/03/01 10:34:14;;;;;;;13.33;11.30;;;22.20;59.90;;;;;;4970059;28;20779;-77
2021/03/01 10:36:45;;;;;;;15.33;10.70;;;22.50;58.30;;;;;;4965138;28;20867;-77
2021/03/01 10:39:23;;;;;;;13.00;10.53;;;22.80;56.50;;;;;;4973589;28;20957;-76
2021/03/01 10:42:13;;;;;;;16.77;11.50;;;23.30;56.90;;;;;;4955481;28;20428;-77
2021/03/01 10:44:53;;;;;;;14.17;10.53;;;23.50;54.70;;;;;;4967932;28;20444;-77
2021/03/01 10:47:23;;;;;;;13.80;11.23;;;23.30;54.60;;;;;;4973083;28;20443;-77
2021/03/01 10:49:57;;;;;;;12.90;10.57;;;23.20;54.60;;;;;;4972832;28;20437;-77
2021/03/01 10:52:25;;;;;;;16.97;10.60;;;23.20;55.50;;;;;;4972405;28;20930;-76
2021/03/01 10:54:55;;;;;;;12.93;10.60;;;23.20;54.60;;;;;;4965269;28;20438;-77
2021/03/01 10:57:22;;;;;;;11.53;9.87;;;23.20;54.20;;;;;;4952861;29;20414;-76
2021/03/01 10:59:51;;;;;;;14.07;11.33;;;23.20;53.40;;;;;;4958370;28;20507;-76
2021/03/01 11:02:17;;;;;;;12.40;11.10;;;20.80;52.50;;;;;;4972560;28;20547;-76
2021/03/01 11:04:43;;;;;;;16.40;10.40;;;21.70;54.90;;;;;;4969007;28;20429;-76
2021/03/01 11:07:08;;;;;;;14.90;11.03;;;22.20;55.60;;;;;;4972066;28;20459;-76
2021/03/01 11:09:34;;;;;;;13.17;10.60;;;22.50;55.40;;;;;;4964486;28;20178;-76
2021/03/01 11:12:00;;;;;;;11.97;10.80;;;22.50;54.20;;;;;;4953594;28;20712;-76
2021/03/01 11:14:25;;;;;;;15.10;10.27;;;22.60;55.30;;;;;;4969329;28;20266;-75
2021/03/01 11:16:53;;;;;;;18.27;9.90;;;22.70;54.40;;;;;;4954529;28;20444;-76
2021/03/01 11:19:19;;;;;;;13.03;11.57;;;22.70;54.00;;;;;;4968915;28;20182;-76
2021/03/01 11:21:44;;;;;;;12.33;10.67;;;22.80;54.00;;;;;;4972823;28;20409;-75
2021/03/01 11:24:11;;;;;;;12.13;10.87;;;22.90;54.90;;;;;;4961854;28;20679;-75
2021/03/01 11:26:37;;;;;;;12.17;10.93;;;23.30;55.20;;;;;;4957609;28;20437;-76
2021/03/01 11:29:03;;;;;;;13.03;10.30;;;23.50;53.70;;;;;;4974413;28;20435;-75
2021/03/01 11:31:31;;;;;;;14.77;9.77;;;23.80;55.10;;;;;;4975965;28;20170;-76
2021/03/01 11:33:57;;;;;;;12.50;9.97;;;24.10;52.90;;;;;;4975127;28;20428;-76
2021/03/01 11:36:23;;;;;;;9.93;8.93;;;23.60;50.20;;;;;;4976509;28;20433;-76
2021/03/01 11:38:48;;;;;;;10.60;9.00;;;23.00;48.40;;;;;;4976268;28;20448;-76
2021/03/01 11:41:15;;;;;;;12.53;9.80;;;21.40;48.00;;;;;;4975548;28;20551;-75
2021/03/01 11:43:42;;;;;;;8.90;7.97;;;22.50;50.00;;;;;;4958761;28;20197;-76
2021/03/01 11:46:08;;;;;;;11.00;8.63;;;22.90;47.60;;;;;;4970656;28;20455;-76
2021/03/01 11:48:34;;;;;;;15.00;8.43;;;22.90;47.30;;;;;;4976333;28;20408;-75
2021/03/01 11:51:00;;;;;;;9.87;8.40;;;22.30;47.30;;;;;;4975093;28;20922;-76
2021/03/01 11:53:25;;;;;;;8.57;7.60;;;21.60;46.60;;;;;;4975664;28;20205;-76
2021/03/01 11:55:51;;;;;;;12.97;7.70;;;22.00;48.40;;;;;;4976003;28;20200;-76
2021/03/01 11:58:17;;;;;;;10.70;7.90;;;21.80;46.90;;;;;;4974535;28;20174;-76
2021/03/01 12:00:42;;;;;;;8.73;7.53;;;21.70;49.00;;;;;;4974108;28;20260;-76
2021/03/01 12:03:09;;;;;;;7.77;7.07;;;21.70;47.80;;;;;;4976402;28;20704;-77
2021/03/01 12:05:37;;;;;;;9.00;8.03;;;21.50;47.60;;;;;;4976260;28;20224;-76
2021/03/01 12:08:03;;;;;;;9.37;8.00;;;20.40;48.20;;;;;;4975559;28;20855;-79
2021/03/01 12:10:29;;;;;;;8.57;7.30;;;20.20;48.90;;;;;;4974062;28;20448;-76
2021/03/01 12:12:55;;;;;;;10.77;7.80;;;20.60;51.30;;;;;;4975722;28;20429;-77
2021/03/01 12:15:20;;;;;;;8.80;7.87;;;20.40;48.60;;;;;;4975803;28;20435;-76
2021/03/01 12:17:46;;;;;;;9.70;8.40;;;21.10;49.50;;;;;;4975761;28;20174;-76
2021/03/01 12:20:12;;;;;;;10.70;8.10;;;20.70;47.80;;;;;;4973879;28;20176;-75
2021/03/01 12:22:37;;;;;;;8.53;7.20;;;21.00;47.90;;;;;;4975637;28;20293;-76
2021/03/01 12:25:05;;;;;;;8.43;6.63;;;20.80;50.00;;;;;;4975382;28;20176;-76
2021/03/01 12:27:31;;;;;;;11.93;9.50;;;20.50;48.50;;;;;;4974053;28;20181;-76
2021/03/01 12:29:56;;;;;;;9.67;6.67;;;20.10;48.80;;;;;;4970718;28;20413;-76
2021/03/01 12:32:22;;;;;;;11.13;7.63;;;21.00;49.80;;;;;;4956096;29;20178;-76
2021/03/01 12:34:47;;;;;;;9.27;6.23;;;21.10;50.70;;;;;;4962261;28;20256;-75
2021/03/01 12:37:14;;;;;;;9.70;5.67;;;20.70;47.10;;;;;;4956467;29;20194;-76
2021/03/01 12:39:40;;;;;;;9.90;6.33;;;20.70;47.70;;;;;;4956154;29;20649;-75
2021/03/01 12:42:06;;;;;;;8.97;5.30;;;20.80;48.70;;;;;;4955918;29;20449;-76
2021/03/01 12:44:32;;;;;;;7.23;5.47;;;20.30;46.00;;;;;;4965261;28;20596;-76